sensor_id;sensor_type;location;lat;lon;timestamp;P1;durP1;ratioP1;P2;durP2;ratioP2
74593;SDS011;63097;51.872;4.460;2023-06-22T00:02:00;7.85;;;4.45;;
74593;SDS011;63097;51.872;4.460;2023-06-22T00:04:26;6.53;;;4.18;;
74593;SDS011;63097;51.872;4.460;2023-06-22T00:06:52;6.28;;;4.32;;
74593;SDS011;63097;51.872;4.460;2023-06-22T00:09:17;5.28;;;4.22;;
74593;SDS011;63097;51.872;4.460;2023-06-22T00:11:42;5.70;;;4.30;;
74593;SDS011;63097;51.872;4.460;2023-06-22T00:14:08;7.25;;;4.28;;
74593;SDS011;63097;51.872;4.460;2023-06-22T00:16:33;5.68;;;4.30;;
74593;SDS011;63097;51.872;4.460;2023-06-22T00:18:59;7.93;;;4.45;;
74593;SDS011;63097;51.872;4.460;2023-06-22T00:21:25;7.97;;;4.25;;
74593;SDS011;63097;51.872;4.460;2023-06-22T00:23:54;7.88;;;4.55;;
74593;SDS011;63097;51.872;4.460;2023-06-22T00:26:19;8.45;;;4.70;;
74593;SDS011;63097;51.872;4.460;2023-06-22T00:28:45;6.63;;;4.80;;
74593;SDS011;63097;51.872;4.460;2023-06-22T00:31:10;5.80;;;4.88;;
74593;SDS011;63097;51.872;4.460;2023-06-22T00:33:35;8.18;;;4.80;;
74593;SDS011;63097;51.872;4.460;2023-06-22T00:36:01;7.55;;;5.05;;
74593;SDS011;63097;51.872;4.460;2023-06-22T00:41:29;5.32;;;4.80;;
74593;SDS011;63097;51.872;4.460;2023-06-22T00:43:54;6.93;;;4.88;;
74593;SDS011;63097;51.872;4.460;2023-06-22T00:46:20;8.50;;;4.88;;
74593;SDS011;63097;51.872;4.460;2023-06-22T00:48:46;5.85;;;4.50;;
74593;SDS011;63097;51.872;4.460;2023-06-22T00:51:12;8.02;;;4.63;;
74593;SDS011;63097;51.872;4.460;2023-06-22T00:53:37;4.65;;;4.18;;
74593;SDS011;63097;51.872;4.460;2023-06-22T00:56:03;10.40;;;3.80;;
74593;SDS011;63097;51.872;4.460;2023-06-22T00:58:29;6.00;;;3.90;;
74593;SDS011;63097;51.872;4.460;2023-06-22T01:00:55;6.20;;;3.95;;
74593;SDS011;63097;51.872;4.460;2023-06-22T01:03:20;5.20;;;3.40;;
74593;SDS011;63097;51.872;4.460;2023-06-22T01:05:45;4.95;;;3.50;;
74593;SDS011;63097;51.872;4.460;2023-06-22T01:13:16;3.63;;;3.00;;
74593;SDS011;63097;51.872;4.460;2023-06-22T01:15:51;10.30;;;3.47;;
74593;SDS011;63097;51.872;4.460;2023-06-22T01:18:20;4.60;;;2.92;;
74593;SDS011;63097;51.872;4.460;2023-06-22T01:20:48;4.90;;;2.70;;
74593;SDS011;63097;51.872;4.460;2023-06-22T01:29:04;5.43;;;2.88;;
74593;SDS011;63097;51.872;4.460;2023-06-22T01:31:30;4.28;;;2.97;;
74593;SDS011;63097;51.872;4.460;2023-06-22T01:34:00;5.60;;;2.80;;
74593;SDS011;63097;51.872;4.460;2023-06-22T01:36:28;5.35;;;3.03;;
74593;SDS011;63097;51.872;4.460;2023-06-22T01:38:55;3.28;;;2.97;;
74593;SDS011;63097;51.872;4.460;2023-06-22T01:41:24;6.72;;;2.95;;
74593;SDS011;63097;51.872;4.460;2023-06-22T01:43:50;5.65;;;3.53;;
74593;SDS011;63097;51.872;4.460;2023-06-22T01:46:17;5.25;;;3.45;;
74593;SDS011;63097;51.872;4.460;2023-06-22T01:48:43;4.03;;;3.30;;
74593;SDS011;63097;51.872;4.460;2023-06-22T01:51:09;5.45;;;3.40;;
74593;SDS011;63097;51.872;4.460;2023-06-22T01:53:34;5.70;;;3.17;;
74593;SDS011;63097;51.872;4.460;2023-06-22T01:56:00;6.22;;;3.38;;
74593;SDS011;63097;51.872;4.460;2023-06-22T01:58:26;4.20;;;3.50;;
74593;SDS011;63097;51.872;4.460;2023-06-22T02:00:56;7.25;;;3.35;;
74593;SDS011;63097;51.872;4.460;2023-06-22T02:06:45;5.05;;;3.80;;
74593;SDS011;63097;51.872;4.460;2023-06-22T02:09:14;5.22;;;3.47;;
74593;SDS011;63097;51.872;4.460;2023-06-22T02:11:42;4.70;;;3.90;;
74593;SDS011;63097;51.872;4.460;2023-06-22T02:14:10;6.20;;;3.75;;
74593;SDS011;63097;51.872;4.460;2023-06-22T02:16:37;6.93;;;4.22;;
74593;SDS011;63097;51.872;4.460;2023-06-22T02:19:03;6.20;;;3.78;;
74593;SDS011;63097;51.872;4.460;2023-06-22T02:21:28;6.10;;;4.10;;
74593;SDS011;63097;51.872;4.460;2023-06-22T02:23:54;4.45;;;4.05;;
74593;SDS011;63097;51.872;4.460;2023-06-22T02:26:20;4.95;;;4.28;;
74593;SDS011;63097;51.872;4.460;2023-06-22T02:28:45;5.25;;;4.70;;
74593;SDS011;63097;51.872;4.460;2023-06-22T02:31:10;6.10;;;4.90;;
74593;SDS011;63097;51.872;4.460;2023-06-22T02:33:36;6.97;;;5.30;;
74593;SDS011;63097;51.872;4.460;2023-06-22T02:36:01;7.68;;;5.75;;
74593;SDS011;63097;51.872;4.460;2023-06-22T02:38:27;12.63;;;6.13;;
74593;SDS011;63097;51.872;4.460;2023-06-22T02:40:52;8.00;;;5.45;;
74593;SDS011;63097;51.872;4.460;2023-06-22T02:43:17;12.90;;;5.97;;
74593;SDS011;63097;51.872;4.460;2023-06-22T02:45:43;10.63;;;6.90;;
74593;SDS011;63097;51.872;4.460;2023-06-22T02:48:08;17.00;;;7.07;;
74593;SDS011;63097;51.872;4.460;2023-06-22T02:50:33;12.27;;;7.70;;
74593;SDS011;63097;51.872;4.460;2023-06-22T02:52:59;8.40;;;6.88;;
74593;SDS011;63097;51.872;4.460;2023-06-22T02:55:24;12.10;;;7.72;;
74593;SDS011;63097;51.872;4.460;2023-06-22T02:57:49;14.20;;;7.95;;
74593;SDS011;63097;51.872;4.460;2023-06-22T03:00:15;14.95;;;7.40;;
74593;SDS011;63097;51.872;4.460;2023-06-22T03:02:40;17.52;;;8.50;;
74593;SDS011;63097;51.872;4.460;2023-06-22T03:05:05;10.65;;;7.30;;
74593;SDS011;63097;51.872;4.460;2023-06-22T03:07:31;12.13;;;7.65;;
74593;SDS011;63097;51.872;4.460;2023-06-22T03:09:56;9.90;;;7.68;;
74593;SDS011;63097;51.872;4.460;2023-06-22T03:12:21;12.25;;;7.25;;
74593;SDS011;63097;51.872;4.460;2023-06-22T03:14:47;16.52;;;8.48;;
74593;SDS011;63097;51.872;4.460;2023-06-22T03:17:12;11.65;;;8.10;;
74593;SDS011;63097;51.872;4.460;2023-06-22T03:19:37;13.65;;;8.98;;
74593;SDS011;63097;51.872;4.460;2023-06-22T03:22:03;14.23;;;8.55;;
74593;SDS011;63097;51.872;4.460;2023-06-22T03:24:28;15.13;;;9.30;;
74593;SDS011;63097;51.872;4.460;2023-06-22T03:26:54;17.13;;;9.88;;
74593;SDS011;63097;51.872;4.460;2023-06-22T03:29:19;15.80;;;9.52;;
74593;SDS011;63097;51.872;4.460;2023-06-22T03:31:44;15.18;;;9.60;;
74593;SDS011;63097;51.872;4.460;2023-06-22T03:34:10;15.55;;;9.80;;
74593;SDS011;63097;51.872;4.460;2023-06-22T03:36:35;14.70;;;9.50;;
74593;SDS011;63097;51.872;4.460;2023-06-22T03:39:00;14.15;;;9.32;;
74593;SDS011;63097;51.872;4.460;2023-06-22T03:41:25;15.80;;;8.98;;
74593;SDS011;63097;51.872;4.460;2023-06-22T03:43:51;14.43;;;10.00;;
74593;SDS011;63097;51.872;4.460;2023-06-22T03:46:16;14.40;;;9.00;;
74593;SDS011;63097;51.872;4.460;2023-06-22T03:48:41;16.15;;;9.98;;
74593;SDS011;63097;51.872;4.460;2023-06-22T03:51:07;15.27;;;9.48;;
74593;SDS011;63097;51.872;4.460;2023-06-22T03:53:32;15.27;;;10.50;;
74593;SDS011;63097;51.872;4.460;2023-06-22T03:55:57;17.23;;;10.48;;
74593;SDS011;63097;51.872;4.460;2023-06-22T03:58:23;20.13;;;10.27;;
74593;SDS011;63097;51.872;4.460;2023-06-22T04:00:49;17.80;;;10.82;;
74593;SDS011;63097;51.872;4.460;2023-06-22T04:03:15;19.17;;;11.75;;
74593;SDS011;63097;51.872;4.460;2023-06-22T04:05:41;16.83;;;11.07;;
74593;SDS011;63097;51.872;4.460;2023-06-22T04:08:07;20.55;;;10.90;;
74593;SDS011;63097;51.872;4.460;2023-06-22T04:10:33;21.15;;;11.60;;
74593;SDS011;63097;51.872;4.460;2023-06-22T04:12:59;21.88;;;11.35;;
74593;SDS011;63097;51.872;4.460;2023-06-22T04:15:24;16.35;;;11.40;;
74593;SDS011;63097;51.872;4.460;2023-06-22T04:17:50;20.80;;;11.63;;
74593;SDS011;63097;51.872;4.460;2023-06-22T04:20:15;16.58;;;11.30;;
74593;SDS011;63097;51.872;4.460;2023-06-22T04:22:40;15.77;;;11.57;;
74593;SDS011;63097;51.872;4.460;2023-06-22T04:25:06;21.63;;;12.55;;
74593;SDS011;63097;51.872;4.460;2023-06-22T04:27:31;16.42;;;11.52;;
74593;SDS011;63097;51.872;4.460;2023-06-22T04:29:57;17.50;;;11.55;;
74593;SDS011;63097;51.872;4.460;2023-06-22T04:32:22;17.85;;;12.05;;
74593;SDS011;63097;51.872;4.460;2023-06-22T04:34:47;16.73;;;11.50;;
74593;SDS011;63097;51.872;4.460;2023-06-22T04:37:13;17.67;;;11.63;;
74593;SDS011;63097;51.872;4.460;2023-06-22T04:39:38;17.85;;;11.00;;
74593;SDS011;63097;51.872;4.460;2023-06-22T04:42:03;14.98;;;10.68;;
74593;SDS011;63097;51.872;4.460;2023-06-22T04:44:29;19.02;;;10.80;;
74593;SDS011;63097;51.872;4.460;2023-06-22T04:46:55;17.92;;;11.10;;
74593;SDS011;63097;51.872;4.460;2023-06-22T04:49:24;17.17;;;10.35;;
74593;SDS011;63097;51.872;4.460;2023-06-22T04:51:49;17.00;;;10.68;;
74593;SDS011;63097;51.872;4.460;2023-06-22T04:54:14;16.08;;;10.55;;
74593;SDS011;63097;51.872;4.460;2023-06-22T04:56:40;18.27;;;10.98;;
74593;SDS011;63097;51.872;4.460;2023-06-22T04:59:05;17.90;;;11.05;;
74593;SDS011;63097;51.872;4.460;2023-06-22T05:01:31;18.65;;;11.13;;
74593;SDS011;63097;51.872;4.460;2023-06-22T05:03:56;16.85;;;9.95;;
74593;SDS011;63097;51.872;4.460;2023-06-22T05:06:22;21.08;;;10.73;;
74593;SDS011;63097;51.872;4.460;2023-06-22T05:08:48;20.45;;;9.80;;
74593;SDS011;63097;51.872;4.460;2023-06-22T05:11:13;14.65;;;9.45;;
74593;SDS011;63097;51.872;4.460;2023-06-22T05:13:38;19.52;;;10.35;;
74593;SDS011;63097;51.872;4.460;2023-06-22T05:16:04;20.17;;;10.18;;
74593;SDS011;63097;51.872;4.460;2023-06-22T05:18:30;18.17;;;9.88;;
74593;SDS011;63097;51.872;4.460;2023-06-22T05:20:55;16.30;;;9.38;;
74593;SDS011;63097;51.872;4.460;2023-06-22T05:23:21;13.45;;;8.60;;
74593;SDS011;63097;51.872;4.460;2023-06-22T05:25:46;13.00;;;8.20;;
74593;SDS011;63097;51.872;4.460;2023-06-22T05:28:14;15.57;;;8.18;;
74593;SDS011;63097;51.872;4.460;2023-06-22T05:30:40;14.07;;;8.15;;
74593;SDS011;63097;51.872;4.460;2023-06-22T05:33:05;15.48;;;7.45;;
74593;SDS011;63097;51.872;4.460;2023-06-22T05:35:30;10.57;;;7.38;;
74593;SDS011;63097;51.872;4.460;2023-06-22T05:37:56;12.95;;;7.72;;
74593;SDS011;63097;51.872;4.460;2023-06-22T05:40:21;13.73;;;7.20;;
74593;SDS011;63097;51.872;4.460;2023-06-22T05:42:47;10.63;;;6.82;;
74593;SDS011;63097;51.872;4.460;2023-06-22T05:45:12;10.38;;;7.00;;
74593;SDS011;63097;51.872;4.460;2023-06-22T05:47:37;13.43;;;7.25;;
74593;SDS011;63097;51.872;4.460;2023-06-22T05:50:03;10.20;;;7.22;;
74593;SDS011;63097;51.872;4.460;2023-06-22T05:52:29;10.82;;;6.95;;
74593;SDS011;63097;51.872;4.460;2023-06-22T05:54:54;10.65;;;6.30;;
74593;SDS011;63097;51.872;4.460;2023-06-22T05:57:19;7.80;;;6.40;;
74593;SDS011;63097;51.872;4.460;2023-06-22T05:59:45;14.60;;;6.30;;
74593;SDS011;63097;51.872;4.460;2023-06-22T06:02:10;13.27;;;6.80;;
74593;SDS011;63097;51.872;4.460;2023-06-22T06:04:35;7.90;;;5.55;;
74593;SDS011;63097;51.872;4.460;2023-06-22T06:07:00;9.40;;;5.63;;
74593;SDS011;63097;51.872;4.460;2023-06-22T06:09:26;9.35;;;4.80;;
74593;SDS011;63097;51.872;4.460;2023-06-22T06:11:51;8.35;;;4.78;;
74593;SDS011;63097;51.872;4.460;2023-06-22T06:14:16;6.47;;;5.63;;
74593;SDS011;63097;51.872;4.460;2023-06-22T06:16:42;8.05;;;5.70;;
74593;SDS011;63097;51.872;4.460;2023-06-22T06:19:07;7.05;;;4.80;;
74593;SDS011;63097;51.872;4.460;2023-06-22T06:21:32;8.20;;;5.07;;
74593;SDS011;63097;51.872;4.460;2023-06-22T06:23:58;7.50;;;5.47;;
74593;SDS011;63097;51.872;4.460;2023-06-22T06:26:23;11.60;;;5.40;;
74593;SDS011;63097;51.872;4.460;2023-06-22T06:28:48;6.97;;;5.07;;
74593;SDS011;63097;51.872;4.460;2023-06-22T06:31:13;6.47;;;5.18;;
74593;SDS011;63097;51.872;4.460;2023-06-22T06:33:39;10.60;;;5.72;;
74593;SDS011;63097;51.872;4.460;2023-06-22T06:36:04;9.40;;;5.40;;
74593;SDS011;63097;51.872;4.460;2023-06-22T06:38:30;9.00;;;5.88;;
74593;SDS011;63097;51.872;4.460;2023-06-22T06:40:56;14.38;;;5.18;;
74593;SDS011;63097;51.872;4.460;2023-06-22T06:43:21;7.90;;;4.80;;
74593;SDS011;63097;51.872;4.460;2023-06-22T06:45:46;6.38;;;4.55;;
74593;SDS011;63097;51.872;4.460;2023-06-22T06:48:12;9.88;;;4.97;;
74593;SDS011;63097;51.872;4.460;2023-06-22T06:50:37;10.45;;;4.30;;
74593;SDS011;63097;51.872;4.460;2023-06-22T06:53:02;6.80;;;4.10;;
74593;SDS011;63097;51.872;4.460;2023-06-22T06:55:28;6.10;;;4.00;;
74593;SDS011;63097;51.872;4.460;2023-06-22T06:57:53;4.45;;;3.88;;
74593;SDS011;63097;51.872;4.460;2023-06-22T07:00:18;8.88;;;3.92;;
74593;SDS011;63097;51.872;4.460;2023-06-22T07:02:45;7.68;;;3.92;;
74593;SDS011;63097;51.872;4.460;2023-06-22T07:05:10;5.43;;;3.95;;
74593;SDS011;63097;51.872;4.460;2023-06-22T07:07:37;10.07;;;3.50;;
74593;SDS011;63097;51.872;4.460;2023-06-22T07:10:02;4.95;;;3.63;;
74593;SDS011;63097;51.872;4.460;2023-06-22T07:12:29;6.18;;;3.08;;
74593;SDS011;63097;51.872;4.460;2023-06-22T07:15:03;7.25;;;2.70;;
74593;SDS011;63097;51.872;4.460;2023-06-22T07:17:30;4.10;;;3.08;;
74593;SDS011;63097;51.872;4.460;2023-06-22T07:19:55;7.57;;;2.92;;
74593;SDS011;63097;51.872;4.460;2023-06-22T07:22:20;3.28;;;2.22;;
74593;SDS011;63097;51.872;4.460;2023-06-22T07:24:46;4.57;;;2.78;;
74593;SDS011;63097;51.872;4.460;2023-06-22T07:27:11;4.03;;;2.53;;
74593;SDS011;63097;51.872;4.460;2023-06-22T07:29:36;4.95;;;2.80;;
74593;SDS011;63097;51.872;4.460;2023-06-22T07:32:01;5.13;;;2.47;;
74593;SDS011;63097;51.872;4.460;2023-06-22T07:34:27;5.07;;;2.50;;
74593;SDS011;63097;51.872;4.460;2023-06-22T07:36:52;7.28;;;2.92;;
74593;SDS011;63097;51.872;4.460;2023-06-22T07:39:17;5.38;;;2.63;;
74593;SDS011;63097;51.872;4.460;2023-06-22T07:41:43;4.78;;;3.08;;
74593;SDS011;63097;51.872;4.460;2023-06-22T07:44:09;3.75;;;2.50;;
74593;SDS011;63097;51.872;4.460;2023-06-22T07:46:34;6.10;;;2.83;;
74593;SDS011;63097;51.872;4.460;2023-06-22T07:49:00;5.00;;;3.40;;
74593;SDS011;63097;51.872;4.460;2023-06-22T07:51:26;7.60;;;4.25;;
74593;SDS011;63097;51.872;4.460;2023-06-22T07:53:51;4.53;;;2.38;;
74593;SDS011;63097;51.872;4.460;2023-06-22T07:56:17;6.38;;;2.90;;
74593;SDS011;63097;51.872;4.460;2023-06-22T07:58:42;5.00;;;2.83;;
74593;SDS011;63097;51.872;4.460;2023-06-22T08:01:08;3.13;;;2.00;;
74593;SDS011;63097;51.872;4.460;2023-06-22T08:03:33;3.33;;;1.90;;
74593;SDS011;63097;51.872;4.460;2023-06-22T08:05:58;4.07;;;2.20;;
74593;SDS011;63097;51.872;4.460;2023-06-22T08:08:23;4.88;;;2.10;;
74593;SDS011;63097;51.872;4.460;2023-06-22T08:10:49;4.63;;;2.10;;
74593;SDS011;63097;51.872;4.460;2023-06-22T08:13:14;5.50;;;2.10;;
74593;SDS011;63097;51.872;4.460;2023-06-22T08:15:40;3.67;;;1.70;;
74593;SDS011;63097;51.872;4.460;2023-06-22T08:18:05;4.00;;;1.30;;
74593;SDS011;63097;51.872;4.460;2023-06-22T08:20:30;4.13;;;1.50;;
74593;SDS011;63097;51.872;4.460;2023-06-22T08:22:57;3.50;;;1.48;;
74593;SDS011;63097;51.872;4.460;2023-06-22T08:25:22;2.20;;;1.47;;
74593;SDS011;63097;51.872;4.460;2023-06-22T08:27:47;2.00;;;1.00;;
74593;SDS011;63097;51.872;4.460;2023-06-22T08:30:13;1.70;;;1.10;;
74593;SDS011;63097;51.872;4.460;2023-06-22T08:32:38;1.83;;;0.90;;
74593;SDS011;63097;51.872;4.460;2023-06-22T08:35:04;2.95;;;0.90;;
74593;SDS011;63097;51.872;4.460;2023-06-22T08:37:30;1.15;;;0.70;;
74593;SDS011;63097;51.872;4.460;2023-06-22T08:39:55;1.73;;;0.82;;
74593;SDS011;63097;51.872;4.460;2023-06-22T08:42:24;1.70;;;0.90;;
74593;SDS011;63097;51.872;4.460;2023-06-22T08:44:50;1.25;;;0.77;;
74593;SDS011;63097;51.872;4.460;2023-06-22T08:47:15;7.30;;;0.60;;
74593;SDS011;63097;51.872;4.460;2023-06-22T08:49:40;1.85;;;0.80;;
74593;SDS011;63097;51.872;4.460;2023-06-22T08:52:06;2.88;;;0.70;;
74593;SDS011;63097;51.872;4.460;2023-06-22T08:54:31;1.13;;;0.60;;
74593;SDS011;63097;51.872;4.460;2023-06-22T08:56:57;1.30;;;0.70;;
74593;SDS011;63097;51.872;4.460;2023-06-22T08:59:22;2.50;;;0.60;;
74593;SDS011;63097;51.872;4.460;2023-06-22T09:01:47;3.30;;;0.80;;
74593;SDS011;63097;51.872;4.460;2023-06-22T09:04:13;5.17;;;0.97;;
74593;SDS011;63097;51.872;4.460;2023-06-22T09:06:38;1.40;;;0.90;;
74593;SDS011;63097;51.872;4.460;2023-06-22T09:09:03;2.47;;;1.00;;
74593;SDS011;63097;51.872;4.460;2023-06-22T09:11:28;8.83;;;1.27;;
74593;SDS011;63097;51.872;4.460;2023-06-22T09:13:54;6.93;;;1.60;;
74593;SDS011;63097;51.872;4.460;2023-06-22T09:16:19;3.15;;;1.08;;
74593;SDS011;63097;51.872;4.460;2023-06-22T09:18:47;1.90;;;1.20;;
74593;SDS011;63097;51.872;4.460;2023-06-22T09:21:13;1.48;;;1.30;;
74593;SDS011;63097;51.872;4.460;2023-06-22T09:23:41;4.95;;;1.30;;
74593;SDS011;63097;51.872;4.460;2023-06-22T09:26:07;1.40;;;1.05;;
74593;SDS011;63097;51.872;4.460;2023-06-22T09:28:33;2.03;;;1.20;;
74593;SDS011;63097;51.872;4.460;2023-06-22T09:30:59;4.00;;;2.03;;
74593;SDS011;63097;51.872;4.460;2023-06-22T09:33:25;4.37;;;1.80;;
74593;SDS011;63097;51.872;4.460;2023-06-22T09:35:50;2.65;;;1.60;;
74593;SDS011;63097;51.872;4.460;2023-06-22T09:38:16;2.45;;;2.15;;
74593;SDS011;63097;51.872;4.460;2023-06-22T09:40:42;4.82;;;3.00;;
74593;SDS011;63097;51.872;4.460;2023-06-22T09:43:07;3.80;;;2.75;;
74593;SDS011;63097;51.872;4.460;2023-06-22T09:45:32;10.52;;;2.80;;
74593;SDS011;63097;51.872;4.460;2023-06-22T09:47:58;6.78;;;3.30;;
74593;SDS011;63097;51.872;4.460;2023-06-22T09:50:23;8.57;;;3.77;;
74593;SDS011;63097;51.872;4.460;2023-06-22T09:52:48;9.43;;;3.30;;
74593;SDS011;63097;51.872;4.460;2023-06-22T09:55:14;4.60;;;3.27;;
74593;SDS011;63097;51.872;4.460;2023-06-22T09:57:39;5.72;;;3.60;;
74593;SDS011;63097;51.872;4.460;2023-06-22T10:00:06;5.70;;;4.03;;
74593;SDS011;63097;51.872;4.460;2023-06-22T10:02:32;5.90;;;4.32;;
74593;SDS011;63097;51.872;4.460;2023-06-22T10:04:57;5.87;;;3.73;;
74593;SDS011;63097;51.872;4.460;2023-06-22T10:07:22;5.07;;;3.63;;
74593;SDS011;63097;51.872;4.460;2023-06-22T10:09:48;5.50;;;3.23;;
74593;SDS011;63097;51.872;4.460;2023-06-22T10:12:13;6.82;;;3.75;;
74593;SDS011;63097;51.872;4.460;2023-06-22T10:14:38;6.50;;;4.50;;
74593;SDS011;63097;51.872;4.460;2023-06-22T10:17:04;6.03;;;4.28;;
74593;SDS011;63097;51.872;4.460;2023-06-22T10:19:29;6.18;;;4.80;;
74593;SDS011;63097;51.872;4.460;2023-06-22T10:21:54;12.10;;;5.07;;
74593;SDS011;63097;51.872;4.460;2023-06-22T10:24:20;6.93;;;4.30;;
74593;SDS011;63097;51.872;4.460;2023-06-22T10:26:45;7.43;;;4.45;;
74593;SDS011;63097;51.872;4.460;2023-06-22T10:29:10;7.47;;;3.77;;
74593;SDS011;63097;51.872;4.460;2023-06-22T10:31:36;6.07;;;3.33;;
74593;SDS011;63097;51.872;4.460;2023-06-22T10:34:01;5.28;;;3.70;;
74593;SDS011;63097;51.872;4.460;2023-06-22T10:36:26;4.47;;;3.27;;
74593;SDS011;63097;51.872;4.460;2023-06-22T10:38:52;4.78;;;3.20;;
74593;SDS011;63097;51.872;4.460;2023-06-22T10:41:17;5.65;;;3.50;;
74593;SDS011;63097;51.872;4.460;2023-06-22T10:43:42;5.50;;;3.15;;
74593;SDS011;63097;51.872;4.460;2023-06-22T10:46:09;3.67;;;3.00;;
74593;SDS011;63097;51.872;4.460;2023-06-22T10:48:37;4.38;;;2.78;;
74593;SDS011;63097;51.872;4.460;2023-06-22T10:51:02;5.05;;;2.72;;
74593;SDS011;63097;51.872;4.460;2023-06-22T10:53:27;2.92;;;2.55;;
74593;SDS011;63097;51.872;4.460;2023-06-22T10:55:53;5.10;;;2.42;;
74593;SDS011;63097;51.872;4.460;2023-06-22T10:58:18;4.50;;;2.70;;
74593;SDS011;63097;51.872;4.460;2023-06-22T11:00:43;3.80;;;2.00;;
74593;SDS011;63097;51.872;4.460;2023-06-22T11:03:09;3.83;;;2.55;;
74593;SDS011;63097;51.872;4.460;2023-06-22T11:05:34;4.20;;;2.90;;
74593;SDS011;63097;51.872;4.460;2023-06-22T11:07:59;3.93;;;3.27;;
74593;SDS011;63097;51.872;4.460;2023-06-22T11:10:25;7.55;;;3.88;;
74593;SDS011;63097;51.872;4.460;2023-06-22T11:12:50;4.57;;;3.27;;
74593;SDS011;63097;51.872;4.460;2023-06-22T11:15:15;6.53;;;3.40;;
74593;SDS011;63097;51.872;4.460;2023-06-22T11:17:41;7.75;;;3.40;;
74593;SDS011;63097;51.872;4.460;2023-06-22T11:20:06;4.17;;;3.77;;
74593;SDS011;63097;51.872;4.460;2023-06-22T11:22:32;7.15;;;4.03;;
74593;SDS011;63097;51.872;4.460;2023-06-22T11:24:57;10.00;;;4.68;;
74593;SDS011;63097;51.872;4.460;2023-06-22T11:27:24;9.32;;;4.22;;
74593;SDS011;63097;51.872;4.460;2023-06-22T11:29:49;4.47;;;3.38;;
74593;SDS011;63097;51.872;4.460;2023-06-22T11:32:14;4.00;;;3.60;;
74593;SDS011;63097;51.872;4.460;2023-06-22T11:34:40;5.25;;;3.55;;
74593;SDS011;63097;51.872;4.460;2023-06-22T11:37:05;5.43;;;3.20;;
74593;SDS011;63097;51.872;4.460;2023-06-22T11:39:31;4.82;;;3.10;;
74593;SDS011;63097;51.872;4.460;2023-06-22T11:41:56;6.63;;;3.47;;
74593;SDS011;63097;51.872;4.460;2023-06-22T11:44:21;4.85;;;3.30;;
74593;SDS011;63097;51.872;4.460;2023-06-22T11:46:46;7.57;;;3.40;;
74593;SDS011;63097;51.872;4.460;2023-06-22T11:49:12;8.63;;;3.37;;
74593;SDS011;63097;51.872;4.460;2023-06-22T11:51:37;6.82;;;3.65;;
74593;SDS011;63097;51.872;4.460;2023-06-22T11:54:02;5.03;;;3.78;;
74593;SDS011;63097;51.872;4.460;2023-06-22T11:56:28;5.55;;;3.42;;
74593;SDS011;63097;51.872;4.460;2023-06-22T11:58:53;11.25;;;4.32;;
74593;SDS011;63097;51.872;4.460;2023-06-22T12:01:18;5.82;;;3.90;;
74593;SDS011;63097;51.872;4.460;2023-06-22T12:03:44;11.77;;;3.67;;
74593;SDS011;63097;51.872;4.460;2023-06-22T12:06:09;4.78;;;3.55;;
74593;SDS011;63097;51.872;4.460;2023-06-22T12:08:34;6.70;;;4.07;;
74593;SDS011;63097;51.872;4.460;2023-06-22T12:11:00;4.15;;;3.63;;
74593;SDS011;63097;51.872;4.460;2023-06-22T12:13:25;4.65;;;3.60;;
74593;SDS011;63097;51.872;4.460;2023-06-22T12:15:50;5.45;;;3.55;;
74593;SDS011;63097;51.872;4.460;2023-06-22T12:18:16;6.47;;;5.15;;
74593;SDS011;63097;51.872;4.460;2023-06-22T12:20:42;6.50;;;4.97;;
74593;SDS011;63097;51.872;4.460;2023-06-22T12:23:08;14.43;;;6.07;;
74593;SDS011;63097;51.872;4.460;2023-06-22T12:25:33;9.20;;;5.85;;
74593;SDS011;63097;51.872;4.460;2023-06-22T12:27:58;6.03;;;5.15;;
74593;SDS011;63097;51.872;4.460;2023-06-22T12:30:24;13.40;;;5.63;;
74593;SDS011;63097;51.872;4.460;2023-06-22T12:32:49;7.63;;;5.07;;
74593;SDS011;63097;51.872;4.460;2023-06-22T12:35:14;13.15;;;5.65;;
74593;SDS011;63097;51.872;4.460;2023-06-22T12:37:40;13.15;;;6.07;;
74593;SDS011;63097;51.872;4.460;2023-06-22T12:40:07;9.07;;;5.93;;
74593;SDS011;63097;51.872;4.460;2023-06-22T12:42:33;12.02;;;5.97;;
74593;SDS011;63097;51.872;4.460;2023-06-22T12:44:58;12.48;;;6.30;;
74593;SDS011;63097;51.872;4.460;2023-06-22T12:47:23;12.23;;;6.20;;
74593;SDS011;63097;51.872;4.460;2023-06-22T12:49:49;8.43;;;5.95;;
74593;SDS011;63097;51.872;4.460;2023-06-22T12:52:14;12.60;;;6.47;;
74593;SDS011;63097;51.872;4.460;2023-06-22T12:54:39;17.63;;;7.05;;
74593;SDS011;63097;51.872;4.460;2023-06-22T12:57:05;6.50;;;4.85;;
74593;SDS011;63097;51.872;4.460;2023-06-22T12:59:30;5.50;;;3.88;;
74593;SDS011;63097;51.872;4.460;2023-06-22T13:01:56;11.43;;;4.38;;
74593;SDS011;63097;51.872;4.460;2023-06-22T13:04:21;12.30;;;3.80;;
74593;SDS011;63097;51.872;4.460;2023-06-22T13:06:48;4.05;;;3.42;;
74593;SDS011;63097;51.872;4.460;2023-06-22T13:09:14;8.45;;;4.07;;
74593;SDS011;63097;51.872;4.460;2023-06-22T13:11:40;7.20;;;4.25;;
74593;SDS011;63097;51.872;4.460;2023-06-22T13:14:06;7.88;;;5.30;;
74593;SDS011;63097;51.872;4.460;2023-06-22T13:16:31;7.68;;;5.40;;
74593;SDS011;63097;51.872;4.460;2023-06-22T13:18:56;7.55;;;6.13;;
74593;SDS011;63097;51.872;4.460;2023-06-22T13:21:22;8.25;;;5.93;;
74593;SDS011;63097;51.872;4.460;2023-06-22T13:23:47;6.60;;;5.55;;
74593;SDS011;63097;51.872;4.460;2023-06-22T13:26:12;8.65;;;4.38;;
74593;SDS011;63097;51.872;4.460;2023-06-22T13:28:38;8.07;;;4.22;;
74593;SDS011;63097;51.872;4.460;2023-06-22T13:31:03;6.07;;;4.90;;
74593;SDS011;63097;51.872;4.460;2023-06-22T13:33:28;7.35;;;5.97;;
74593;SDS011;63097;51.872;4.460;2023-06-22T13:35:54;7.97;;;6.20;;
74593;SDS011;63097;51.872;4.460;2023-06-22T13:38:19;11.52;;;6.22;;
74593;SDS011;63097;51.872;4.460;2023-06-22T13:40:45;12.38;;;6.90;;
74593;SDS011;63097;51.872;4.460;2023-06-22T13:43:10;12.05;;;6.60;;
74593;SDS011;63097;51.872;4.460;2023-06-22T13:45:35;10.13;;;7.05;;
74593;SDS011;63097;51.872;4.460;2023-06-22T13:48:01;12.75;;;8.07;;
74593;SDS011;63097;51.872;4.460;2023-06-22T13:50:26;13.23;;;8.63;;
74593;SDS011;63097;51.872;4.460;2023-06-22T13:52:51;17.58;;;9.05;;
74593;SDS011;63097;51.872;4.460;2023-06-22T13:55:17;16.58;;;9.40;;
74593;SDS011;63097;51.872;4.460;2023-06-22T13:57:42;17.13;;;9.98;;
74593;SDS011;63097;51.872;4.460;2023-06-22T14:00:08;15.40;;;11.25;;
74593;SDS011;63097;51.872;4.460;2023-06-22T14:02:33;22.83;;;11.73;;
74593;SDS011;63097;51.872;4.460;2023-06-22T14:04:59;19.98;;;12.32;;
74593;SDS011;63097;51.872;4.460;2023-06-22T14:07:25;18.52;;;12.35;;
74593;SDS011;63097;51.872;4.460;2023-06-22T14:09:50;19.60;;;12.43;;
74593;SDS011;63097;51.872;4.460;2023-06-22T14:12:15;23.92;;;13.02;;
74593;SDS011;63097;51.872;4.460;2023-06-22T14:14:41;17.75;;;12.45;;
74593;SDS011;63097;51.872;4.460;2023-06-22T14:17:06;17.75;;;13.15;;
74593;SDS011;63097;51.872;4.460;2023-06-22T14:19:31;20.50;;;13.48;;
74593;SDS011;63097;51.872;4.460;2023-06-22T14:21:57;26.63;;;14.05;;
74593;SDS011;63097;51.872;4.460;2023-06-22T14:24:23;21.27;;;14.15;;
74593;SDS011;63097;51.872;4.460;2023-06-22T14:26:48;19.98;;;13.65;;
74593;SDS011;63097;51.872;4.460;2023-06-22T14:29:14;22.67;;;14.65;;
74593;SDS011;63097;51.872;4.460;2023-06-22T14:31:39;24.02;;;14.98;;
74593;SDS011;63097;51.872;4.460;2023-06-22T14:34:04;19.90;;;14.82;;
74593;SDS011;63097;51.872;4.460;2023-06-22T14:36:30;18.83;;;13.95;;
74593;SDS011;63097;51.872;4.460;2023-06-22T14:38:55;23.77;;;15.00;;
74593;SDS011;63097;51.872;4.460;2023-06-22T14:41:21;19.00;;;14.30;;
74593;SDS011;63097;51.872;4.460;2023-06-22T14:43:47;18.48;;;14.00;;
74593;SDS011;63097;51.872;4.460;2023-06-22T14:46:15;17.52;;;10.52;;
74593;SDS011;63097;51.872;4.460;2023-06-22T14:48:42;12.38;;;9.43;;